Tiempo atmosférico en la estación meteorológica de Alcañiz, Teruel (320 m.)



Fecha
DESCASC
Temp. máxima en grados centígrados (hora)
DESCASC
Temp. mínima en grados centígrados (hora)
DESCASC
Temp. media en grados centígrados
DESCASC
Racha de viento máxima en m/sg (hora)
DESCASC
Velocidad máxima media en intervalos de 10 minutos(hora)
DESCASC
Precipitaciones diarias en mm
DESCASC
Precipitaciones de 00:00 a 06:00 en mm
DESCASC
Precipitaciones de 06:00 a 12:00 en mm
DESCASC
Precipitaciones de 12:00 a 18:00 en mm
DESCASC
Precipitaciones de 18:00 a 24:00 en mm
DESCASC
16-06-2019 29.8 (17:10) 9.6 (07:00) 19.7 8.89 (16:30) 4.72 (19:20) 0 0 0 0 0
15-06-2019 26.6 (17:20) 13.1 (06:20) 19.9 8.33 (03:20) 4.17 (03:20) 0 0 0 0 0
14-06-2019 28.2 (19:00) 13.2 (06:30) 20.7 8.33 (19:30) 4.44 (19:40) 0 0 0 0 0
13-06-2019 27.4 (15:20) 12.4 (00:00) 19.9 10.56 (16:00) 6.39 (17:50) 0 0 0 0 0
12-06-2019 23 (17:40) 4.9 (00:00) 14 8.89 (19:00) 5 (19:00) 0 0 0 0 0
11-06-2019 19.1 (19:00) 11.1 (00:00) 15.1 10.28 (18:50) 5.83 (21:10) 0.1 0 0 0.1 0
10-06-2019 23.8 (16:40) 12.3 (00:00) 18 12.5 (08:50) 5.56 (14:50) 0 0 0 0 0
09-06-2019 29.2 (17:50) 13.8 (00:00) 21.5 11.67 (23:10) 6.39 (23:00) 0 0 0 0 0
08-06-2019 26.6 (14:40) 6.9 (00:00) 16.8 10 (15:40) 5.56 (16:50) 0 0 0 0 0
07-06-2019 24.6 (18:20) 13.5 (00:00) 19.1 11.94 (01:20) 6.39 (08:50) 0 0 0 0 0
06-06-2019 25.5 (16:10) 7.9 (00:00) 16.7 14.17 (18:50) 6.39 (18:50) 0 0 0 0 0
05-06-2019 24.1 (00:10) 12.4 (00:00) 18.3 17.22 (14:10) 8.89 (14:50) 0 0 0 0 0
04-06-2019 32.3 (18:40) 12.5 (00:00) 22.4 12.5 (21:40) 6.11 (21:50) 0 0 0 0 0
03-06-2019 32.5 (18:20) 12.7 (00:00) 22.6 10 (16:10) 3.89 (16:50) 0.1 0 0 0.1 0
02-06-2019 32.9 (16:20) 12.1 (00:00) 22.5 8.06 (18:40) 4.17 (18:40) 0 0 0 0 0
01-06-2019 30.8 (17:10) 11.6 (00:00) 21.2 7.78 (17:00) 4.44 (19:00) 0 0 0 0 0
31-05-2019 30 (17:20) 10.7 (00:00) 20.3 7.5 (18:40) 4.17 (18:40) 0 0 0 0 0
30-05-2019 27.7 (19:00) 8.6 (00:00) 18.2 7.22 (13:10) 3.89 (09:30) 0 0 0 0 0
29-05-2019 22.2 (17:20) 10.4 (00:00) 16.3 13.06 (10:00) 7.22 (10:00) 0 0 0 0 0
28-05-2019 20.6 (14:30) 10.4 (00:00) 15.5 16.67 (20:20) 8.89 (17:40) 0 0 0 0 0
27-05-2019 24.3 (16:30) 10.4 (00:00) 17.3 13.33 (20:00) 7.22 (22:10) 0 0 0 0 0
26-05-2019 22.6 (17:00) 9.4 (00:00) 16 10.83 (16:20) 5.83 (17:40) 0 0 0 0 0
25-05-2019 22.1 (15:40) 11.9 (00:00) 17 12.78 (19:30) 6.94 (20:00) 0.1 0.1 0 0 0
24-05-2019 19.5 (00:10) 11.6 (00:00) 15.6 10 (23:50) 5.28 (16:20) 18.3 1.3 12.9 2.8 1.3
23-05-2019 29.1 (17:00) 10.5 (00:00) 19.8 10 (22:30) 5.56 (22:30) 0 0 0 0 0
22-05-2019 26.2 (16:50) 7.9 (00:00) 17.1 7.78 (14:30) 3.06 (17:30) 0 0 0 0 0
21-05-2019 24 (16:20) 6.4 (06:30) 15.2 7.5 (17:10) 3.06 (16:00) 0 0 0 0 0

Gráficas

Temp. máximas Temp. mínimas Temp. medias Precipitaciones Rachas de viento máximas Velocidades máximas media en intervalos de 10 minutos

Datos horarios

Fecha y hora oficial Temperatura (ºC) Velocidad del viento (km/h) Dirección del viento Racha (km/h) Dirección de racha Precipitación (mm) Presión (hPa) Tendencia (hPa) Humedad (%)
2019-06-19 23:00:00 23.8 0 Calma 6 Sur 0 -- -- 45
2019-06-19 22:00:00 26.5 4 Sur 13 Sur 0 -- -- 41
2019-06-19 21:00:00 28.8 6 Sudeste 17 Sur 0 -- -- 39
2019-06-19 20:00:00 29.8 6 Sudeste 27 Este 0 -- -- 39
2019-06-19 19:00:00 30.2 7 Este 21 Nordeste 0 -- -- 38
2019-06-19 18:00:00 30.8 0 Calma 19 Este 0 -- -- 37
2019-06-19 17:00:00 30.7 10 Nordeste 26 Nordeste 0 -- -- 37
2019-06-19 16:00:00 31.7 6 Norte 26 Norte 0 -- -- 38
2019-06-19 15:00:00 30.2 7 Norte 26 Nordeste 0 -- -- 39
2019-06-19 14:00:00 30.2 2 Oeste 20 Noroeste 0 -- -- 39
2019-06-19 13:00:00 29.3 4 Sur 15 Norte 0 -- -- 41
2019-06-19 12:00:00 26.8 9 Noroeste 22 Noroeste 0 -- -- 43
2019-06-19 11:00:00 26 6 Noroeste 20 Oeste 0 -- -- 45
2019-06-19 10:00:00 24.5 8 Oeste 15 Oeste 0 -- -- 46
2019-06-19 09:00:00 21.2 0 Calma 6 Sudoeste 0 -- -- 54
2019-06-19 08:00:00 18.6 0 Calma 4 Norte 0 -- -- 58
2019-06-19 07:00:00 15.2 0 Calma 3 Sudeste 0 -- -- 63
2019-06-19 06:00:00 16.3 3 Este 8 Este 0 -- -- 60
2019-06-19 05:00:00 17.4 3 Oeste 9 Noroeste 0 -- -- 54
2019-06-19 04:00:00 18.6 5 Oeste 8 Noroeste 0 -- -- 51
2019-06-19 03:00:00 19.9 0 Calma 12 Oeste 0 -- -- 44
2019-06-19 02:00:00 22 9 Noroeste 17 Noroeste 0 -- -- 40
2019-06-19 01:00:00 23.9 0 Calma 15 Sur 0 -- -- 37
2019-06-19 00:00:00 24.7 7 Sur 18 Sur 0 -- -- 35
2019-06-18 23:00:00 25.6 8 Sur 46 Sur 0 -- -- 34
2019-06-18 22:00:00 26.8 14 Sur 33 Sur 0 -- -- 34
2019-06-18 21:00:00 28.7 18 Sur 35 Sur 0 -- -- 33
2019-06-18 20:00:00 30 16 Sudeste 35 Sur 0 -- -- 33
2019-06-18 19:00:00 31.8 15 Sudeste 36 Sudeste 0 -- -- 32
2019-06-18 18:00:00 33.2 17 Sur 36 Sudeste 0 -- -- 31
2019-06-18 17:00:00 34.4 15 Sur 34 Sur 0 -- -- 31
2019-06-18 16:00:00 33 3 Este 26 Norte 0 -- -- 33
2019-06-18 15:00:00 32.9 10 Norte 31 Este 0 -- -- 37
2019-06-18 14:00:00 31.7 14 Nordeste 27 Nordeste 0 -- -- 38
2019-06-18 13:00:00 31.7 11 Nordeste 23 Este 0 -- -- 37
2019-06-18 12:00:00 30.1 11 Este 19 Nordeste 0 -- -- 33
2019-06-18 11:00:00 29 2 Nordeste 10 Nordeste 0 -- -- 35
2019-06-18 10:00:00 25.3 4 Este 8 Este 0 -- -- 40
2019-06-18 09:00:00 21.7 2 Sur 5 Sudoeste 0 -- -- 50
2019-06-18 08:00:00 20 3 Noroeste 8 Noroeste 0 -- -- 52
2019-06-18 07:00:00 16.5 2 Este 7 Este 0 -- -- 50
2019-06-18 06:00:00 17.1 2 Este 5 Este 0 -- -- 48
2019-06-18 05:00:00 17.9 0 Calma 3 Nordeste 0 -- -- 44
2019-06-18 04:00:00 20.1 0 Calma 9 Este 0 -- -- 41
2019-06-18 03:00:00 21.1 0 Calma 8 Sudoeste 0 -- -- 40
2019-06-18 02:00:00 22.2 0 Calma 16 Sudeste 0 -- -- 38
2019-06-18 01:00:00 24.1 9 Sur 18 Sur 0 -- -- 37
2019-06-18 00:00:00 22.7 0 Calma 18 Sudeste 0 -- -- 41
2019-06-17 23:00:00 24.4 8 Sudeste 17 Sudeste 0 -- -- 40
2019-06-17 22:00:00 25.9 9 Sudeste 18 Sur 0 -- -- 37
2019-06-17 21:00:00 28 10 Sudeste 21 Sudeste 0 -- -- 36
2019-06-17 20:00:00 30.1 8 Sudeste 30 Sudeste 0 -- -- 35
2019-06-17 19:00:00 30.7 11 Sudeste 27 Este 0 -- -- 36
2019-06-17 18:00:00 30.9 11 Sudeste 25 Este 0 -- -- 35
2019-06-17 17:00:00 31.9 6 Nordeste 23 Nordeste 0 -- -- 31
2019-06-17 16:00:00 32.5 9 Nordeste 25 Norte 0 -- -- 32
2019-06-17 15:00:00 31.4 8 Este 19 Noroeste 0 -- -- 35
2019-06-17 14:00:00 30.3 6 Nordeste 18 Nordeste 0 -- -- 40
2019-06-17 13:00:00 29.1 7 Nordeste 13 Nordeste 0 -- -- 42
2019-06-17 12:00:00 26.9 6 Este 10 Nordeste 0 -- -- 47
2019-06-17 11:00:00 24.3 4 Sudoeste 13 Oeste 0 -- -- 53
2019-06-17 10:00:00 21.5 4 Oeste 8 Oeste 0 -- -- 61
2019-06-17 09:00:00 18.8 4 Sudoeste 9 Sudoeste 0 -- -- 71
2019-06-17 08:00:00 16.3 0 Calma 7 Oeste 0 -- -- 76
2019-06-17 07:00:00 13.4 3 Oeste 6 Noroeste 0 -- -- 84
2019-06-17 06:00:00 13.2 0 Calma 3 Este 0 -- -- 82
2019-06-17 05:00:00 15.1 0 Calma 8 Este 0 -- -- 77
2019-06-17 04:00:00 16.7 0 Calma 6 Sudoeste 0 -- -- 72
2019-06-17 03:00:00 16.4 5 Oeste 9 Oeste 0 -- -- 73
2019-06-17 02:00:00 16.6 0 Calma 4 Oeste 0 -- -- 71
2019-06-17 01:00:00 17.7 0 Calma 0 Calma 0 -- -- 65
2019-06-17 00:00:00 20.1 0 Calma 6 Este 0 -- -- 57
2019-06-16 23:00:00 22.3 3 Este 9 Sudeste 0 -- -- 51
2019-06-16 22:00:00 24.1 3 Sudeste 13 Sur 0 -- -- 46
2019-06-16 21:00:00 25.2 8 Sur 21 Este 0 -- -- 43
2019-06-16 20:00:00 26.5 9 Este 26 Este 0 -- -- 41
2019-06-16 19:00:00 27 16 Este 28 Este 0 -- -- 42
2019-06-16 18:00:00 27.6 15 Este 29 Este 0 -- -- 43
2019-06-16 17:00:00 29.1 14 Este 32 Nordeste 0 -- -- 37
2019-06-16 16:00:00 27.9 12 Nordeste 27 Norte 0 -- -- 37
2019-06-16 15:00:00 28.1 9 Nordeste 27 Este 0 -- -- 38
2019-06-16 14:00:00 25.7 9 Nordeste 24 Este 0 -- -- 41
2019-06-16 13:00:00 24.2 9 Este 22 Este 0 -- -- 44
2019-06-16 12:00:00 22.8 9 Este 18 Noroeste 0 -- -- 47
2019-06-16 11:00:00 20.9 0 Calma 12 Nordeste 0 -- -- 51
2019-06-16 10:00:00 19.2 0 Calma 7 Sudoeste 0 -- -- 57
2019-06-16 09:00:00 15.5 4 Sudoeste 7 Sudoeste 0 -- -- 67
2019-06-16 08:00:00 12.5 0 Calma 5 Oeste 0 -- -- 74
2019-06-16 07:00:00 9.9 0 Calma -- -- 0 -- -- 80
2019-06-16 06:00:00 10.3 0 Calma -- -- 0 -- -- 77
2019-06-16 05:00:00 11.3 0 Calma 0 Calma 0 -- -- 74
2019-06-16 04:00:00 12.5 0 Calma -- -- 0 -- -- 69
2019-06-16 03:00:00 13.7 0 Calma 6 Oeste 0 -- -- 66
2019-06-16 02:00:00 15.5 0 Calma 9 Sudeste 0 -- -- 60
2019-06-16 01:00:00 16.9 3 Sudoeste 9 Oeste 0 -- -- 56
2019-06-16 00:00:00 17.6 3 Sur 12 Noroeste 0 -- -- 51
2019-06-15 23:00:00 20.9 9 Noroeste 17 Noroeste 0 -- -- 43
2019-06-15 22:00:00 21.7 8 Noroeste 10 Noroeste 0 -- -- 40
2019-06-15 21:00:00 24.2 5 Norte 15 Norte 0 -- -- 36
2019-06-15 20:00:00 25.1 7 Noroeste 20 Noroeste 0 -- -- 35
2019-06-15 19:00:00 26 8 Noroeste 21 Norte 0 -- -- 35
2019-06-15 18:00:00 26.3 7 Noroeste 23 Noroeste 0 -- -- 35
2019-06-15 17:00:00 26.1 6 Norte 25 Noroeste 0 -- -- 37
2019-06-15 16:00:00 25.3 7 Norte 27 Noroeste 0 -- -- 39
2019-06-15 15:00:00 24.1 11 Noroeste 24 Oeste 0 -- -- 39
2019-06-15 14:00:00 23.9 7 Oeste 27 Oeste 0 -- -- 39
2019-06-15 13:00:00 22.2 8 Noroeste 22 Oeste 0 -- -- 47
2019-06-15 12:00:00 20.9 7 Oeste 23 Oeste 0 -- -- 54
2019-06-15 11:00:00 19.3 9 Oeste 22 Noroeste 0 -- -- 60
2019-06-15 10:00:00 17.9 9 Oeste 26 Oeste 0 -- -- 66
2019-06-15 09:00:00 16.4 11 Oeste 24 Oeste 0 -- -- 70
2019-06-15 08:00:00 14.8 5 Sudoeste 15 Oeste 0 -- -- 78
2019-06-15 07:00:00 13.6 3 Sudoeste 14 Sudoeste 0 -- -- 82
2019-06-15 06:00:00 13.9 8 Oeste 24 Noroeste 0 -- -- 78
2019-06-15 05:00:00 14.4 13 Oeste 27 Oeste 0 -- -- 75
2019-06-15 04:00:00 15.2 13 Oeste 30 Noroeste 0 -- -- 69
2019-06-15 03:00:00 16.9 9 Noroeste 22 Oeste 0 -- -- 61
2019-06-15 02:00:00 17.5 5 Oeste 24 Noroeste 0 -- -- 52
2019-06-15 01:00:00 18.3 6 Sudoeste 10 Sudoeste 0 -- -- 56
2019-06-15 00:00:00 19.2 4 Sur 10 Sur 0 -- -- 62
2019-06-14 23:00:00 22.1 6 Sur 13 Sudoeste 0 -- -- 53
2019-06-14 22:00:00 24.7 7 Nordeste 20 Nordeste 0 -- -- 49
2019-06-14 21:00:00 26.1 13 Este 24 Este 0 -- -- 47
2019-06-14 20:00:00 27.3 15 Este 30 Este 0 -- -- 44
2019-06-14 19:00:00 28.2 11 Nordeste 25 Nordeste 0 -- -- 42
2019-06-14 18:00:00 27.6 10 Nordeste 23 Este 0 -- -- 43
2019-06-14 17:00:00 27.5 12 Nordeste 23 Nordeste 0 -- -- 43
2019-06-14 16:00:00 25.6 12 Este 23 Este 0 -- -- 44
2019-06-14 15:00:00 25.7 9 Norte 21 Norte 0 -- -- 45
2019-06-14 14:00:00 24.1 3 Sur 15 Oeste 0 -- -- 46
2019-06-14 13:00:00 21.5 6 Noroeste 22 Noroeste 0 -- -- 49
2019-06-14 12:00:00 21.3 12 Noroeste 26 Noroeste 0 -- -- 47
2019-06-14 11:00:00 20.3 7 Este 13 Oeste 0 -- -- 46
2019-06-14 10:00:00 17.2 4 Oeste 13 Oeste 0 -- -- 49
2019-06-14 09:00:00 17.2 4 Noroeste 14 Norte 0 -- -- 48
2019-06-14 08:00:00 14.3 3 Sudoeste 11 Sur 0 -- -- 56
2019-06-14 07:00:00 13.2 2 Sudoeste 13 Sudoeste 0 -- -- 57
2019-06-14 06:00:00 13.8 2 Nordeste 14 Sudoeste 0 -- -- 54
2019-06-14 05:00:00 13.7 2 Oeste 12 Oeste 0 -- -- 52
2019-06-14 04:00:00 15.1 5 Este 10 Este 0 -- -- 48
2019-06-14 03:00:00 15.6 8 Este 19 Este 0 -- -- 46
2019-06-14 02:00:00 16 7 Este 16 Este 0 -- -- 43
2019-06-14 01:00:00 16.7 11 Este 19 Este 0 -- -- 44
2019-06-14 00:00:00 17.4 14 Este 19 Este 0 -- -- 46
2019-06-13 23:00:00 18.3 12 Este 20 Este 0 -- -- 49
2019-06-13 22:00:00 19.8 13 Este 23 Este 0 -- -- 50
2019-06-13 21:00:00 21.8 14 Este 30 Este 0 -- -- 52
2019-06-13 20:00:00 23.3 15 Este 29 Este 0 -- -- 51
2019-06-13 19:00:00 23.7 14 Este 31 Este 0 -- -- 51
2019-06-13 18:00:00 22.8 20 Este 34 Este 0 -- -- 55
2019-06-13 17:00:00 23.3 19 Este 36 Este 0 -- -- 51
2019-06-13 16:00:00 25.6 21 Este 38 Este 0 -- -- 45
2019-06-13 15:00:00 26.5 12 Este 35 Este 0 -- -- 44
2019-06-13 14:00:00 25.8 10 Sur 27 Este 0 -- -- 43
2019-06-13 13:00:00 24.6 12 Este 26 Este 0 -- -- 48
2019-06-13 12:00:00 23.1 11 Este 26 Sur 0 -- -- 52
2019-06-13 11:00:00 22.4 11 Sudeste 25 Este 0 -- -- 53
2019-06-13 10:00:00 21.9 8 Sudeste 19 Este 0 -- -- 57
2019-06-13 09:00:00 17.9 12 Nordeste 19 Este 0 -- -- 67
2019-06-13 08:00:00 15 10 Nordeste 18 Nordeste 0 -- -- 69
2019-06-13 07:00:00 12.7 12 Este 19 Este 0 -- -- 66
2019-06-13 06:00:00 13.4 6 Este 14 Este 0 -- -- 62
2019-06-13 05:00:00 14.7 9 Este 17 Este 0 -- -- 63
2019-06-13 04:00:00 14.5 5 Este 14 Este 0 -- -- 56
2019-06-13 03:00:00 14.8 8 Este 21 Este 0 -- -- 47
2019-06-13 02:00:00 14.3 6 Este 11 Este 0 -- -- 48
2019-06-13 01:00:00 15 8 Este 13 Sudeste 0 -- -- 49
2019-06-13 00:00:00 15.2 5 Este 17 Sudeste 0 -- -- 52
2019-06-12 23:00:00 16.5 6 Sudeste 19 Este 0 -- -- 51
2019-06-12 22:00:00 17.7 9 Sudeste 21 Este 0 -- -- 48
2019-06-12 21:00:00 19.6 11 Sudeste 27 Este 0 -- -- 47
2019-06-12 20:00:00 20.6 11 Este 30 Este 0 -- -- 46
2019-06-12 19:00:00 21.2 18 Este 32 Este 0 -- -- 43
2019-06-12 18:00:00 22.3 14 Nordeste 31 Norte 0 -- -- 35
2019-06-12 17:00:00 21.7 12 Nordeste 28 Este 0 -- -- 35
2019-06-12 16:00:00 21.5 14 Nordeste 29 Este 0 -- -- 36
2019-06-12 15:00:00 21.2 2 Noroeste 21 Este 0 -- -- 38
2019-06-12 14:00:00 19.9 8 Este 17 Este 0 -- -- 41
2019-06-12 13:00:00 -- 6 Este 15 Este 0 -- -- --
2019-06-12 12:00:00 17.4 0 Calma 13 Oeste 0 -- -- 49
2019-06-12 11:00:00 15.7 4 Sur 14 Oeste 0 -- -- 56
2019-06-12 10:00:00 13.2 3 Oeste 14 Oeste 0 -- -- 62
2019-06-12 09:00:00 12.2 3 Sudoeste 10 Oeste 0 -- -- 70
2019-06-12 08:00:00 8.5 5 Sur 12 Sudoeste 0 -- -- 83
2019-06-12 07:00:00 5.8 3 Oeste 6 Sudoeste 0 -- -- 90
2019-06-12 06:00:00 5.6 0 Calma 8 Sudoeste 0 -- -- 87
2019-06-12 05:00:00 6.5 5 Sudoeste 9 Sudoeste 0 -- -- 83
2019-06-12 04:00:00 7.1 3 Sudoeste 6 Oeste 0 -- -- 81
2019-06-12 03:00:00 8.8 0 Calma 13 Sur 0 -- -- 75
2019-06-12 02:00:00 9.6 5 Sur 20 Oeste 0 -- -- 72
2019-06-12 01:00:00 11.1 6 Oeste 26 Oeste 0 -- -- 68
2019-06-12 00:00:00 12.8 12 Oeste 26 Oeste 0 -- -- 62
2019-06-11 23:00:00 13.3 9 Oeste 21 Oeste 0 -- -- 59
2019-06-11 22:00:00 14.2 7 Noroeste 33 Noroeste 0 -- -- 54
2019-06-11 21:00:00 16.6 14 Noroeste 32 Noroeste 0 -- -- 47
2019-06-11 20:00:00 17.7 18 Oeste 37 Noroeste 0 -- -- 45
2019-06-11 19:00:00 17.6 18 Oeste 37 Noroeste 0 -- -- 44
2019-06-11 18:00:00 18.8 14 Oeste 29 Oeste 0 -- -- 50
2019-06-11 17:00:00 15.6 14 Sur 27 Sudeste 0 -- -- 69
2019-06-11 16:00:00 14 7 Sudoeste 22 Oeste 0.1 -- -- 73
2019-06-11 15:00:00 12.3 13 Oeste 29 Oeste 0 -- -- 78
2019-06-11 14:00:00 12.3 17 Oeste 30 Oeste 0 -- -- 74
2019-06-11 13:00:00 11.9 12 Noroeste 32 Oeste 0 -- -- 78
2019-06-11 12:00:00 11.6 15 Noroeste 34 Noroeste 0 -- -- 75
2019-06-11 11:00:00 11.5 15 Noroeste 30 Oeste 0 -- -- 74
2019-06-11 10:00:00 11.5 18 Oeste 31 Oeste 0 -- -- 73
2019-06-11 09:00:00 11.5 9 Oeste 27 Oeste 0 -- -- 74
2019-06-11 08:00:00 11.6 12 Oeste 23 Oeste 0 -- -- 70
2019-06-11 07:00:00 11.7 9 Oeste 17 Oeste 0 -- -- 70
2019-06-11 06:00:00 11.7 13 Oeste 24 Noroeste 0 -- -- 67
2019-06-11 05:00:00 12.7 13 Noroeste 24 Noroeste 0 -- -- 60
2019-06-11 04:00:00 14 5 Oeste 16 Oeste 0 -- -- 53
2019-06-11 03:00:00 14.4 8 Oeste 15 Oeste 0 -- -- 52
2019-06-11 02:00:00 14.7 5 Sudoeste 12 Sudoeste 0 -- -- 53
2019-06-11 01:00:00 14.9 4 Sudoeste 24 Oeste 0 -- -- 53
2019-06-11 00:00:00 15.6 10 Oeste 21 Oeste 0 -- -- 53
2019-06-10 23:00:00 16.2 10 Oeste 24 Noroeste 0 -- -- 53
2019-06-10 22:00:00 17.5 8 Noroeste 28 Oeste 0 -- -- 50
2019-06-10 21:00:00 18.9 16 Oeste 30 Oeste 0 -- -- 47
2019-06-10 20:00:00 20.1 17 Noroeste 31 Noroeste 0 -- -- 47
2019-06-10 19:00:00 21.5 17 Noroeste 30 Noroeste 0 -- -- 45
2019-06-10 18:00:00 23 13 Oeste 27 Oeste 0 -- -- 43
2019-06-10 17:00:00 23.1 15 Noroeste 31 Noroeste 0 -- -- 44
2019-06-10 16:00:00 22 18 Noroeste 37 Norte 0 -- -- 46
2019-06-10 15:00:00 21.1 18 Noroeste 35 Noroeste 0 -- -- 48
2019-06-10 14:00:00 20.4 18 Noroeste 36 Oeste 0 -- -- 51
2019-06-10 13:00:00 19.5 16 Noroeste 33 Noroeste 0 -- -- 55
2019-06-10 12:00:00 18.8 15 Oeste 35 Noroeste 0 -- -- 59
2019-06-10 11:00:00 17.7 18 Oeste 41 Oeste 0 -- -- 62
2019-06-10 10:00:00 16.4 17 Oeste 34 Oeste 0 -- -- 65
2019-06-10 09:00:00 14.9 17 Oeste 45 Oeste 0 -- -- 69
2019-06-10 08:00:00 13.6 13 Oeste 24 Sudoeste 0 -- -- 75
2019-06-10 07:00:00 12.6 13 Oeste 22 Oeste 0 -- -- 78
2019-06-10 06:00:00 12.8 9 Oeste 34 Sudoeste 0 -- -- 78
2019-06-10 05:00:00 14.1 18 Oeste 32 Oeste 0 -- -- 73
2019-06-10 04:00:00 14.1 8 Sudoeste 25 Sudoeste 0 -- -- 74
2019-06-10 03:00:00 14.8 12 Oeste 23 Sudoeste 0 -- -- 71
2019-06-10 02:00:00 15.8 10 Oeste 32 Oeste 0 -- -- 67
2019-06-10 01:00:00 17 13 Oeste 38 Oeste 0 -- -- 63
2019-06-10 00:00:00 18.6 23 Oeste 42 Noroeste 0 -- -- 59
2019-06-09 23:00:00 21.2 23 Noroeste 41 Noroeste 0 -- -- 50
2019-06-09 22:00:00 23.6 4 Este 21 Este 0 -- -- 36
2019-06-09 21:00:00 25.5 13 Este 20 Este 0 -- -- 32
2019-06-09 20:00:00 27.3 13 Este 23 Este 0 -- -- 32
2019-06-09 19:00:00 28.4 5 Nordeste 19 Nordeste 0 -- -- 32
2019-06-09 18:00:00 28.5 7 Este 18 Nordeste 0 -- -- 32
2019-06-09 17:00:00 27.8 6 Norte 21 Este 0 -- -- 33
2019-06-09 16:00:00 26.9 9 Este 22 Nordeste 0 -- -- 35
2019-06-09 15:00:00 26.9 7 Nordeste 16 Este 0 -- -- 37
2019-06-09 14:00:00 25.5 7 Nordeste 14 Nordeste 0 -- -- 38
2019-06-09 13:00:00 24.7 3 Nordeste 15 Nordeste 0 -- -- 39
2019-06-09 12:00:00 23.2 6 Este 15 Este 0 -- -- 40
2019-06-09 11:00:00 21.8 0 Calma 8 Oeste 0 -- -- 45
2019-06-09 10:00:00 19.2 0 Calma 7 Sudoeste 0 -- -- 52
2019-06-09 09:00:00 16.2 2 Oeste 9 Oeste 0 -- -- 62
2019-06-09 08:00:00 14.7 0 Calma 8 Sur 0 -- -- 64
2019-06-09 07:00:00 14.3 0 Calma 11 Norte 0 -- -- 60
2019-06-09 06:00:00 14.4 4 Norte 9 Norte 0 -- -- 59
2019-06-09 05:00:00 14.5 4 Nordeste 9 Norte 0 -- -- 59
2019-06-09 04:00:00 14.6 3 Este 9 Este 0 -- -- 59
2019-06-09 03:00:00 15.2 0 Calma 12 Este 0 -- -- 57
2019-06-09 02:00:00 16.1 5 Este 10 Este 0 -- -- 54
2019-06-09 01:00:00 16.7 5 Este 11 Este 0 -- -- 51
2019-06-09 00:00:00 18.6 2 Sudeste 15 Este 0 -- -- 44
2019-06-08 23:00:00 18.2 5 Este 14 Sudeste 0 -- -- 45
2019-06-08 22:00:00 19.3 6 Sudeste 22 Sudeste 0 -- -- 44
2019-06-08 21:00:00 20.4 12 Sudeste 34 Sudeste 0 -- -- 42
2019-06-08 20:00:00 22.2 17 Sur 31 Sur 0 -- -- 40
2019-06-08 19:00:00 22.9 15 Sudeste 32 Sudeste 0 -- -- 40
2019-06-08 18:00:00 24 12 Sudeste 34 Este 0 -- -- 41
2019-06-08 17:00:00 24.5 17 Este 35 Este 0 -- -- 40
2019-06-08 16:00:00 25.3 16 Sudeste 36 Sudeste 0 -- -- 39
2019-06-08 15:00:00 25.8 13 Sudeste 29 Sudeste 0 -- -- 39
2019-06-08 14:00:00 24.8 3 Nordeste 20 Nordeste 0 -- -- 43
2019-06-08 13:00:00 22.5 8 Este 22 Este 0 -- -- 47
2019-06-08 12:00:00 20.4 7 Nordeste 19 Este 0 -- -- 49
2019-06-08 11:00:00 18.6 7 Este 17 Nordeste 0 -- -- 52
2019-06-08 10:00:00 16.3 5 Norte 10 Noroeste 0 -- -- 54
2019-06-08 09:00:00 13.4 0 Calma 4 Oeste 0 -- -- 61
2019-06-08 08:00:00 10.1 2 Sudoeste 5 Sudoeste 0 -- -- 69
2019-06-08 07:00:00 7.6 0 Calma 6 Oeste 0 -- -- 76
2019-06-08 06:00:00 7.8 0 Calma 5 Sudoeste 0 -- -- 71
2019-06-08 05:00:00 8.3 4 Oeste 7 Oeste 0 -- -- 68
2019-06-08 04:00:00 9 0 Calma 11 Oeste 0 -- -- 65
2019-06-08 03:00:00 10.1 0 Calma 5 Oeste 0 -- -- 61
2019-06-08 02:00:00 10.3 2 Sudoeste 8 Oeste 0 -- -- 60
2019-06-08 01:00:00 12.1 0 Calma 6 Sudoeste 0 -- -- 54
2019-06-08 00:00:00 13.5 0 Calma 6 Oeste 0 -- -- 49
2019-06-07 23:00:00 15.9 0 Calma 6 Norte 0 -- -- 39
2019-06-07 22:00:00 18.9 3 Norte 12 Norte 0 -- -- 34
2019-06-07 21:00:00 20.7 8 Norte 28 Norte 0 -- -- 33
2019-06-07 20:00:00 22.3 10 Norte 27 Norte 0 -- -- 32
2019-06-07 19:00:00 23.5 14 Noroeste 31 Noroeste 0 -- -- 28
2019-06-07 18:00:00 23.8 12 Noroeste 34 Noroeste 0 -- -- 30
2019-06-07 17:00:00 23.2 17 Noroeste 36 Noroeste 0 -- -- 31
2019-06-07 16:00:00 23.7 17 Noroeste 38 Noroeste 0 -- -- 32
2019-06-07 15:00:00 23.9 15 Noroeste 35 Noroeste 0 -- -- 36
2019-06-07 14:00:00 20.5 15 Noroeste 30 Oeste 0 -- -- 41
2019-06-07 13:00:00 20.8 14 Noroeste 33 Oeste 0 -- -- 47
2019-06-07 12:00:00 18.5 17 Oeste 34 Oeste 0 -- -- 53
2019-06-07 11:00:00 16.8 15 Oeste 31 Oeste 0 -- -- 60
2019-06-07 10:00:00 15.3 18 Noroeste 39 Noroeste 0 -- -- 64
2019-06-07 09:00:00 16.4 22 Noroeste 39 Oeste 0 -- -- 64
2019-06-07 08:00:00 17 0 Calma 12 Sudoeste 0 -- -- 74
2019-06-07 07:00:00 15.6 8 Sur 18 Sudoeste 0 -- -- 76
2019-06-07 06:00:00 15.9 8 Sudoeste 23 Sur 0 -- -- 75
2019-06-07 05:00:00 16 10 Sur 22 Sur 0 -- -- 72
2019-06-07 04:00:00 16.7 10 Sur 23 Sur 0 -- -- 70
2019-06-07 03:00:00 17.1 14 Sur 39 Sur 0 -- -- 68
2019-06-07 02:00:00 18.1 20 Sur 43 Sur 0 -- -- 66
2019-06-07 01:00:00 18.3 19 Sur 41 Sur 0 -- -- 65
2019-06-07 00:00:00 18.5 18 Sur 48 Sur 0 -- -- 61
2019-06-06 23:00:00 18.9 23 Sur 44 Sur 0 -- -- 54
2019-06-06 22:00:00 19.9 15 Sur 44 Sur 0 -- -- 45
2019-06-06 21:00:00 21.1 19 Sur 45 Sur 0 -- -- 43
2019-06-06 20:00:00 22.9 23 Sur 50 Sur 0 -- -- 41
2019-06-06 19:00:00 24 20 Sur 51 Sur 0 -- -- 39
2019-06-06 18:00:00 23.7 15 Sudeste 45 Sur 0 -- -- 39
2019-06-06 17:00:00 24.6 18 Sudeste 43 Sudeste 0 -- -- 39
2019-06-06 16:00:00 24.6 15 Sur 46 Sudeste 0 -- -- 42
2019-06-06 15:00:00 23.1 14 Sudeste 31 Sur 0 -- -- 44
2019-06-06 14:00:00 22.8 9 Este 25 Nordeste 0 -- -- 43
2019-06-06 13:00:00 22.7 16 Nordeste 32 Este 0 -- -- 44
2019-06-06 12:00:00 20.8 10 Nordeste 22 Nordeste 0 -- -- 50
2019-06-06 11:00:00 18.4 10 Nordeste 19 Nordeste 0 -- -- 55
2019-06-06 10:00:00 16.2 7 Este 13 Este 0 -- -- 60
2019-06-06 09:00:00 14 0 Calma 8 Sur 0 -- -- 70
2019-06-06 08:00:00 10.7 0 Calma 4 Sur 0 -- -- 82
2019-06-06 07:00:00 8 0 Calma 5 Sudoeste 0 -- -- 88
2019-06-06 06:00:00 8.2 3 Sudoeste 6 Sudoeste 0 -- -- 86
2019-06-06 05:00:00 9.6 4 Oeste 12 Sudoeste 0 -- -- 81
2019-06-06 04:00:00 10.8 3 Sur 7 Sur 0 -- -- 77
2019-06-06 03:00:00 11.1 0 Calma 9 Oeste 0 -- -- 77
2019-06-06 02:00:00 11.3 5 Sudoeste 10 Oeste 0 -- -- 74
2019-06-06 01:00:00 11.3 0 Calma 8 Sur 0 -- -- 71
2019-06-06 00:00:00 12.9 5 Sudoeste 14 Sudoeste 0 -- -- 68
2019-06-05 23:00:00 14.1 8 Oeste 17 Oeste 0 -- -- 63
2019-06-05 22:00:00 16.2 10 Noroeste 30 Noroeste 0 -- -- 55
2019-06-05 21:00:00 17.6 13 Noroeste 32 Noroeste 0 -- -- 49
2019-06-05 20:00:00 18.7 19 Noroeste 37 Noroeste 0 -- -- 47
2019-06-05 19:00:00 19.7 17 Oeste 38 Oeste 0 -- -- 48
2019-06-05 18:00:00 19.4 20 Oeste 47 Oeste 0 -- -- 47
2019-06-05 17:00:00 18.7 22 Oeste 43 Oeste 0 -- -- 48
2019-06-05 16:00:00 18 27 Oeste 54 Oeste 0 -- -- 52
2019-06-05 15:00:00 17.3 27 Oeste 62 Oeste 0 -- -- 58
2019-06-05 14:00:00 16 28 Oeste 52 Oeste 0 -- -- 67
2019-06-05 13:00:00 16.5 20 Noroeste 32 Noroeste 0 -- -- 66
2019-06-05 12:00:00 16 17 Noroeste 35 Noroeste 0 -- -- 70
2019-06-05 11:00:00 17.1 11 Noroeste 24 Noroeste 0 -- -- 68
2019-06-05 10:00:00 15.4 8 Noroeste 18 Oeste 0 -- -- 70
2019-06-05 09:00:00 14.7 7 Noroeste 17 Noroeste 0 -- -- 72
2019-06-05 08:00:00 13.7 8 Noroeste 13 Noroeste 0 -- -- 76
2019-06-05 07:00:00 12.7 0 Calma 4 Noroeste 0 -- -- 86
2019-06-05 06:00:00 12.6 0 Calma 5 Norte 0 -- -- 86
2019-06-05 05:00:00 14.4 3 Noroeste 10 Oeste 0 -- -- 82
2019-06-05 04:00:00 14.7 0 Calma 8 Oeste 0 -- -- 81
2019-06-05 03:00:00 16.1 0 Calma 9 Norte 0 -- -- 78
2019-06-05 02:00:00 17.5 0 Calma 17 Oeste 0 -- -- 74
2019-06-05 01:00:00 19.6 9 Noroeste 45 Noroeste 0 -- -- 69
2019-06-05 00:00:00 22.2 17 Oeste 37 Noroeste 0 -- -- 47
2019-06-04 23:00:00 24.3 13 Sur 42 Sur 0 -- -- 38
2019-06-04 22:00:00 24.9 19 Sur 45 Sur 0 -- -- 40
2019-06-04 21:00:00 26.6 16 Sur 38 Sudeste 0 -- -- 41
2019-06-04 20:00:00 28.5 20 Sur 41 Sur 0 -- -- 39
2019-06-04 19:00:00 31.3 15 Sur 32 Sur 0 -- -- 38
2019-06-04 18:00:00 30.3 8 Nordeste 28 Nordeste 0 -- -- 42
2019-06-04 17:00:00 28.9 17 Nordeste 33 Nordeste 0 -- -- 42
2019-06-04 16:00:00 30 21 Nordeste 32 Nordeste 0 -- -- 35
2019-06-04 15:00:00 30.1 14 Nordeste 30 Norte 0 -- -- 37
2019-06-04 14:00:00 30 13 Nordeste 25 Nordeste 0 -- -- 36
2019-06-04 13:00:00 29.1 13 Nordeste 26 Este 0 -- -- 39
2019-06-04 12:00:00 26.4 12 Nordeste 21 Nordeste 0 -- -- 43
2019-06-04 11:00:00 23.5 4 Nordeste 11 Este 0 -- -- 50
2019-06-04 10:00:00 19.8 0 Calma 10 Oeste 0 -- -- 61
2019-06-04 09:00:00 17.4 4 Sudoeste 12 Oeste 0 -- -- 67
2019-06-04 08:00:00 14.8 0 Calma 3 Sudeste 0 -- -- 78
2019-06-04 07:00:00 12.9 0 Calma 4 Sudoeste 0 -- -- 82
2019-06-04 06:00:00 13.3 0 Calma 4 Noroeste 0 -- -- 78
2019-06-04 05:00:00 14.4 0 Calma 4 Noroeste 0 -- -- 71
2019-06-04 04:00:00 15.9 0 Calma 5 Este 0 -- -- 67
2019-06-04 03:00:00 16.9 4 Este 10 Este 0 -- -- 65
2019-06-04 02:00:00 18.3 3 Este 10 Este 0 -- -- 57
2019-06-04 01:00:00 21.6 4 Sudoeste 11 Noroeste 0 -- -- 44
2019-06-04 00:00:00 23.2 4 Oeste 9 Oeste 0 -- -- 43
2019-06-03 23:00:00 23.8 4 Este 12 Este 0 -- -- 41
2019-06-03 22:00:00 24.6 0 Calma 12 Este 0 -- -- 41
2019-06-03 21:00:00 27.6 6 Sudeste 19 Sudeste 0 -- -- 37
2019-06-03 20:00:00 29.9 8 Sur 21 Sudoeste 0 -- -- 36
2019-06-03 19:00:00 30.2 10 Sudoeste 21 Sur 0 -- -- 33
2019-06-03 18:00:00 32.1 10 Sur 23 Sur 0 -- -- 31
2019-06-03 17:00:00 29 13 Sur 36 Sudoeste 0.1 -- -- 35
2019-06-03 16:00:00 29.7 13 Sudoeste 24 Sudoeste 0 -- -- 33
2019-06-03 15:00:00 30.9 9 Nordeste 19 Nordeste 0 -- -- 32
2019-06-03 14:00:00 28.2 9 Nordeste 20 Este 0 -- -- 35
2019-06-03 13:00:00 25.5 8 Nordeste 20 Norte 0 -- -- 40
2019-06-03 12:00:00 25.5 8 Norte 14 Norte 0 -- -- 45
2019-06-03 11:00:00 23.9 8 Norte 17 Noroeste 0 -- -- 48
2019-06-03 10:00:00 21.3 0 Calma 8 Noroeste 0 -- -- 58
2019-06-03 09:00:00 19.3 0 Calma 4 Este 0 -- -- 63
2019-06-03 08:00:00 14.2 0 Calma -- -- 0 -- -- 79
2019-06-03 07:00:00 13.2 0 Calma -- -- 0 -- -- 78
2019-06-03 06:00:00 13.5 0 Calma -- -- 0 -- -- 75
2019-06-03 05:00:00 13.9 0 Calma 5 Oeste 0 -- -- 74
2019-06-03 04:00:00 15.4 3 Sur 10 Sur 0 -- -- 67
2019-06-03 03:00:00 16.5 3 Norte 16 Noroeste 0 -- -- 57
2019-06-03 02:00:00 18.9 4 Nordeste 8 Norte 0 -- -- 45
2019-06-03 01:00:00 20.6 5 Este 9 Este 0 -- -- 41
2019-06-03 00:00:00 22.7 4 Nordeste 8 Este 0 -- -- 36
2019-06-02 23:00:00 23.8 3 Sudeste 10 Este 0 -- -- 36
2019-06-02 22:00:00 25.4 2 Sudeste 13 Sudeste 0 -- -- 33
2019-06-02 21:00:00 27.9 6 Sudeste 20 Sudeste 0 -- -- 32
2019-06-02 20:00:00 30.3 10 Sur 22 Este 0 -- -- 32
2019-06-02 19:00:00 31.6 14 Este 29 Este 0 -- -- 31
2019-06-02 18:00:00 32.3 12 Nordeste 24 Nordeste 0 -- -- 29
2019-06-02 17:00:00 31.8 10 Nordeste 21 Nordeste 0 -- -- 28
2019-06-02 16:00:00 32.6 4 Nordeste 21 Este 0 -- -- 27
2019-06-02 15:00:00 31.7 8 Este 18 Este 0 -- -- 29
2019-06-02 14:00:00 29.5 5 Este 21 Este 0 -- -- 33
2019-06-02 13:00:00 27.9 8 Este 16 Este 0 -- -- 37
2019-06-02 12:00:00 26.5 9 Nordeste 16 Este 0 -- -- 39
2019-06-02 11:00:00 24.2 0 Calma 9 Oeste 0 -- -- 45
2019-06-02 10:00:00 21 3 Oeste 9 Oeste 0 -- -- 53
2019-06-02 09:00:00 17.4 5 Oeste 10 Sudoeste 0 -- -- 60
2019-06-02 08:00:00 15.9 0 Calma -- -- 0 -- -- 67
2019-06-02 07:00:00 12.3 0 Calma 3 Nordeste 0 -- -- 74
2019-06-02 06:00:00 13.2 0 Calma 6 Este 0 -- -- 69
2019-06-02 05:00:00 13.8 0 Calma 5 Noroeste 0 -- -- 67
2019-06-02 04:00:00 15.6 0 Calma 9 Oeste 0 -- -- 59
2019-06-02 03:00:00 16 5 Oeste 7 Noroeste 0 -- -- 60
2019-06-02 02:00:00 15.5 0 Calma 4 Oeste 0 -- -- 57
2019-06-02 01:00:00 17.9 0 Calma 5 Sudeste 0 -- -- 49
2019-06-02 00:00:00 20.1 0 Calma 5 Este 0 -- -- 44
2019-06-01 23:00:00 21.7 0 Calma 9 Sudoeste 0 -- -- 40
2019-06-01 22:00:00 23.7 5 Sudeste 17 Sur 0 -- -- 37
2019-06-01 21:00:00 26.7 8 Sudeste 23 Este 0 -- -- 35
2019-06-01 20:00:00 28.3 12 Este 26 Este 0 -- -- 35
2019-06-01 19:00:00 29.4 16 Este 28 Nordeste 0 -- -- 32
2019-06-01 18:00:00 29.9 15 Este 27 Nordeste 0 -- -- 29
2019-06-01 17:00:00 30.2 14 Nordeste 28 Este 0 -- -- 30
2019-06-01 16:00:00 30.2 10 Nordeste 27 Nordeste 0 -- -- 31
2019-06-01 15:00:00 29.1 11 Nordeste 24 Nordeste 0 -- -- 30
2019-06-01 14:00:00 28.2 9 Nordeste 19 Este 0 -- -- 33
2019-06-01 13:00:00 27.1 5 Este 16 Este 0 -- -- 37
2019-06-01 12:00:00 25.3 3 Nordeste 12 Nordeste 0 -- -- 40
2019-06-01 11:00:00 23 4 Este 9 Este 0 -- -- 47
2019-06-01 10:00:00 20 2 Oeste 11 Oeste 0 -- -- 58
2019-06-01 09:00:00 17.5 3 Sudoeste 8 Sudoeste 0 -- -- 68
2019-06-01 08:00:00 14.5 0 Calma -- -- 0 -- -- 78
2019-06-01 07:00:00 11.7 0 Calma -- -- 0 -- -- 87
2019-06-01 06:00:00 12 0 Calma 6 Oeste 0 -- -- 86
2019-06-01 05:00:00 13 0 Calma 2 Nordeste 0 -- -- 81
2019-06-01 04:00:00 13.8 0 Calma 4 Este 0 -- -- 76
2019-06-01 03:00:00 14.5 0 Calma 5 Este 0 -- -- 72
2019-06-01 02:00:00 16 0 Calma 5 Oeste 0 -- -- 66
2019-06-01 01:00:00 17.1 2 Oeste 7 Oeste 0 -- -- 62
2019-06-01 00:00:00 19 0 Calma 6 Sudoeste 0 -- -- 55
2019-05-31 23:00:00 20.8 3 Sur 9 Este 0 -- -- 50
2019-05-31 22:00:00 22.6 2 Este 15 Este 0 -- -- 45
2019-05-31 21:00:00 25 9 Este 22 Este 0 -- -- 42
2019-05-31 20:00:00 26.7 13 Este 23 Este 0 -- -- 39
2019-05-31 19:00:00 27.7 13 Este 27 Este 0 -- -- 36
2019-05-31 18:00:00 28.8 4 Nordeste 17 Norte 0 -- -- 31
2019-05-31 17:00:00 28.8 3 Sudeste 17 Oeste 0 -- -- 31
2019-05-31 16:00:00 27.4 6 Oeste 19 Norte 0 -- -- 32
2019-05-31 15:00:00 26.4 9 Norte 18 Nordeste 0 -- -- 35
2019-05-31 14:00:00 26.1 3 Sudeste 18 Sudoeste 0 -- -- 39
2019-05-31 13:00:00 24.6 4 Sudoeste 14 Sudoeste 0 -- -- 43
2019-05-31 12:00:00 22.5 6 Sudoeste 14 Sudoeste 0 -- -- 51
2019-05-31 11:00:00 20.8 5 Sudoeste 13 Oeste 0 -- -- 54
2019-05-31 10:00:00 19.2 3 Sudoeste 8 Oeste 0 -- -- 56
2019-05-31 09:00:00 16.5 0 Calma 6 Sudoeste 0 -- -- 62
2019-05-31 08:00:00 13.3 4 Oeste 10 Sudoeste 0 -- -- 75
2019-05-31 07:00:00 11 0 Calma 0 Calma 0 -- -- 82
2019-05-31 06:00:00 11.6 0 Calma 6 Sudoeste 0 -- -- 79
2019-05-31 05:00:00 12.2 0 Calma 5 Sudoeste 0 -- -- 75
2019-05-31 04:00:00 12.5 0 Calma 6 Sudoeste 0 -- -- 73
2019-05-31 03:00:00 13.1 0 Calma 5 Oeste 0 -- -- 71
2019-05-31 02:00:00 13.6 4 Oeste 9 Sudoeste 0 -- -- 71
2019-05-31 01:00:00 14.5 4 Oeste 7 Sudoeste 0 -- -- 65
2019-05-31 00:00:00 15.8 0 Calma 5 Sudoeste 0 -- -- 58
2019-05-30 23:00:00 18.1 0 Calma 5 Sudoeste 0 -- -- 50
2019-05-30 22:00:00 20.7 2 Norte 4 Norte 0 -- -- 39
2019-05-30 21:00:00 25.1 0 Calma 8 Noroeste 0 -- -- 32
2019-05-30 20:00:00 26.2 5 Noroeste 13 Noroeste 0 -- -- 30
2019-05-30 19:00:00 27 5 Noroeste 15 Noroeste 0 -- -- 30
2019-05-30 18:00:00 26.8 2 Norte 16 Oeste 0 -- -- 30
2019-05-30 17:00:00 27.1 5 Noroeste 16 Noroeste 0 -- -- 31
2019-05-30 16:00:00 25.4 4 Norte 19 Noroeste 0 -- -- 34
2019-05-30 15:00:00 24.3 5 Oeste 19 Oeste 0 -- -- 36
2019-05-30 14:00:00 22.7 8 Oeste 26 Oeste 0 -- -- 39
2019-05-30 13:00:00 22 7 Noroeste 23 Oeste 0 -- -- 41
2019-05-30 12:00:00 20.7 11 Oeste 23 Oeste 0 -- -- 43
2019-05-30 11:00:00 19.4 8 Oeste 20 Oeste 0 -- -- 48
2019-05-30 10:00:00 16.7 12 Oeste 23 Oeste 0 -- -- 54
2019-05-30 09:00:00 14.9 4 Oeste 8 Oeste 0 -- -- 66
2019-05-30 08:00:00 11.7 0 Calma 5 Sudoeste 0 -- -- 76
2019-05-30 07:00:00 9.1 4 Sudoeste 8 Sudoeste 0 -- -- 85
2019-05-30 06:00:00 8.9 3 Sudoeste 5 Sudoeste 0 -- -- 85
2019-05-30 05:00:00 9.6 3 Sudoeste 7 Oeste 0 -- -- 81
2019-05-30 04:00:00 11.1 0 Calma 12 Sudoeste 0 -- -- 72
2019-05-30 03:00:00 12.1 6 Sudoeste 13 Sudoeste 0 -- -- 69
2019-05-30 02:00:00 12.7 0 Calma 19 Oeste 0 -- -- 67
2019-05-30 01:00:00 13.2 3 Sudoeste 22 Oeste 0 -- -- 63
2019-05-30 00:00:00 14.7 12 Oeste 19 Oeste 0 -- -- 58
2019-05-29 23:00:00 15.3 8 Oeste 19 Oeste 0 -- -- 54
2019-05-29 22:00:00 16.7 5 Sudoeste 27 Oeste 0 -- -- 49
2019-05-29 21:00:00 18.5 14 Oeste 36 Oeste 0 -- -- 43
2019-05-29 20:00:00 20 18 Oeste 36 Oeste 0 -- -- 40
2019-05-29 19:00:00 20.7 19 Oeste 40 Oeste 0 -- -- 38
2019-05-29 18:00:00 21.2 18 Oeste 41 Oeste 0 -- -- 37
2019-05-29 17:00:00 21.2 18 Oeste 45 Sudoeste 0 -- -- 38
2019-05-29 16:00:00 20.9 21 Oeste 41 Oeste 0 -- -- 39
2019-05-29 15:00:00 20 22 Oeste 42 Oeste 0 -- -- 41
2019-05-29 14:00:00 18.1 20 Oeste 44 Oeste 0 -- -- 46
2019-05-29 13:00:00 17.7 22 Noroeste 37 Noroeste 0 -- -- 48
2019-05-29 12:00:00 16.1 21 Oeste 37 Noroeste 0 -- -- 53
2019-05-29 11:00:00 15.7 20 Oeste 46 Oeste 0 -- -- 56
2019-05-29 10:00:00 14.6 26 Noroeste 47 Oeste 0 -- -- 59
2019-05-29 09:00:00 13.1 22 Oeste 41 Oeste 0 -- -- 63
2019-05-29 08:00:00 11.8 18 Oeste 35 Oeste 0 -- -- 64
2019-05-29 07:00:00 10.5 13 Oeste 33 Oeste 0 -- -- 68
2019-05-29 06:00:00 10.9 18 Oeste 35 Oeste 0 -- -- 66
2019-05-29 05:00:00 10.9 15 Oeste 30 Oeste 0 -- -- 65
2019-05-29 04:00:00 10.8 14 Oeste 32 Noroeste 0 -- -- 65
2019-05-29 03:00:00 11.2 10 Oeste 36 Oeste 0 -- -- 63
2019-05-29 02:00:00 12.1 17 Oeste 36 Oeste 0 -- -- 61
2019-05-29 01:00:00 12.6 13 Oeste 36 Oeste 0 -- -- 58
2019-05-29 00:00:00 13 18 Oeste 44 Oeste 0 -- -- 54
2019-05-28 23:00:00 14 25 Oeste 50 Oeste 0 -- -- 48
2019-05-28 22:00:00 14.8 27 Oeste 59 Oeste 0 -- -- 47
2019-05-28 21:00:00 15.8 28 Oeste 60 Oeste 0 -- -- 48
2019-05-28 20:00:00 17.2 26 Oeste 51 Oeste 0 -- -- 47
2019-05-28 19:00:00 18.2 26 Oeste 55 Noroeste 0 -- -- 43
2019-05-28 18:00:00 19.4 29 Noroeste 54 Oeste 0 -- -- 42
2019-05-28 17:00:00 19.1 25 Oeste 54 Oeste 0 -- -- 40
2019-05-28 16:00:00 19.2 27 Noroeste 53 Oeste 0 -- -- 43
2019-05-28 15:00:00 19.3 27 Oeste 53 Noroeste 0 -- -- 43
2019-05-28 14:00:00 19.6 20 Noroeste 44 Noroeste 0 -- -- 44
2019-05-28 13:00:00 18.4 22 Noroeste 45 Oeste 0 -- -- 45
2019-05-28 12:00:00 16.8 22 Oeste 49 Oeste 0 -- -- 48
2019-05-28 11:00:00 15.8 28 Oeste 49 Oeste 0 -- -- 52
2019-05-28 10:00:00 14.6 23 Oeste 44 Oeste 0 -- -- 55
2019-05-28 09:00:00 13.1 19 Oeste 41 Oeste 0 -- -- 59
2019-05-28 08:00:00 11.5 15 Oeste 32 Sudoeste 0 -- -- 65
2019-05-28 07:00:00 10.8 15 Oeste 26 Sudoeste 0 -- -- 66
2019-05-28 06:00:00 11.3 12 Sudoeste 26 Oeste 0 -- -- 66
2019-05-28 05:00:00 11.8 12 Sudoeste 28 Oeste 0 -- -- 67
2019-05-28 04:00:00 11.8 14 Oeste 34 Oeste 0 -- -- 66
2019-05-28 03:00:00 12.7 19 Oeste 38 Oeste 0 -- -- 62
2019-05-28 02:00:00 13.5 17 Oeste 38 Oeste 0 -- -- 61
2019-05-28 01:00:00 14.5 17 Oeste 48 Oeste 0 -- -- 59
2019-05-28 00:00:00 15.9 22 Oeste 44 Oeste 0 -- -- 60
2019-05-27 23:00:00 17.2 17 Oeste 44 Noroeste 0 -- -- 58
2019-05-27 22:00:00 18.6 24 Oeste 44 Noroeste 0 -- -- 53
2019-05-27 21:00:00 19.6 24 Oeste 45 Oeste 0 -- -- 50
2019-05-27 20:00:00 20.9 24 Oeste 48 Oeste 0 -- -- 47
2019-05-27 19:00:00 22.8 24 Noroeste 46 Oeste 0 -- -- 43
2019-05-27 18:00:00 23.9 22 Oeste 43 Noroeste 0 -- -- 43
2019-05-27 17:00:00 22.8 17 Noroeste 40 Noroeste 0 -- -- 44
2019-05-27 16:00:00 22.3 18 Noroeste 34 Oeste 0 -- -- 44
2019-05-27 15:00:00 22.3 19 Oeste 36 Oeste 0 -- -- 45
2019-05-27 14:00:00 20.9 14 Oeste 30 Oeste 0 -- -- 47
2019-05-27 13:00:00 19.6 15 Oeste 32 Noroeste 0 -- -- 51
2019-05-27 12:00:00 18.6 14 Oeste 33 Oeste 0 -- -- 55
2019-05-27 11:00:00 16.4 17 Oeste 33 Sudoeste 0 -- -- 61
2019-05-27 10:00:00 14.3 19 Oeste 33 Oeste 0 -- -- 69
2019-05-27 09:00:00 13.3 16 Oeste 32 Oeste 0 -- -- 73
2019-05-27 08:00:00 12.5 11 Sudoeste 17 Sudoeste 0 -- -- 78
2019-05-27 07:00:00 10.5 3 Sudoeste 9 Sudoeste 0 -- -- 86
2019-05-27 06:00:00 10.8 3 Sudoeste 10 Sudoeste 0 -- -- 83
2019-05-27 05:00:00 11.8 4 Sudoeste 12 Sudoeste 0 -- -- 80
2019-05-27 04:00:00 12.2 9 Oeste 19 Oeste 0 -- -- 79
2019-05-27 03:00:00 12.4 9 Sudoeste 19 Oeste 0 -- -- 78
2019-05-27 02:00:00 12.8 6 Sudoeste 20 Sudoeste 0 -- -- 76
2019-05-27 01:00:00 13.2 9 Sudoeste 18 Oeste 0 -- -- 73
2019-05-27 00:00:00 14.3 10 Oeste 21 Oeste 0 -- -- 68
2019-05-26 23:00:00 15.1 12 Oeste 31 Oeste 0 -- -- 63
2019-05-26 22:00:00 16.6 16 Oeste 35 Noroeste 0 -- -- 54
2019-05-26 21:00:00 18.4 21 Oeste 35 Oeste 0 -- -- 48
2019-05-26 20:00:00 20.5 17 Oeste 39 Oeste 0 -- -- 44
2019-05-26 19:00:00 21 20 Oeste 38 Oeste 0 -- -- 43
2019-05-26 18:00:00 21.8 19 Oeste 36 Oeste 0 -- -- 43
2019-05-26 17:00:00 22 18 Oeste 39 Oeste 0 -- -- 42
2019-05-26 16:00:00 21.1 17 Oeste 35 Oeste 0 -- -- 43
2019-05-26 15:00:00 19.7 17 Noroeste 34 Noroeste 0 -- -- 46
2019-05-26 14:00:00 19.8 14 Oeste 32 Oeste 0 -- -- 47
2019-05-26 13:00:00 18.7 16 Oeste 34 Oeste 0 -- -- 50
2019-05-26 12:00:00 17.1 15 Oeste 30 Oeste 0 -- -- 53
2019-05-26 11:00:00 16.2 16 Oeste 30 Oeste 0 -- -- 58
2019-05-26 10:00:00 13.9 16 Oeste 31 Oeste 0 -- -- 63
2019-05-26 09:00:00 13.1 18 Oeste 34 Oeste 0 -- -- 66
2019-05-26 08:00:00 11.7 12 Sudoeste 21 Oeste 0 -- -- 71
2019-05-26 07:00:00 9.5 5 Sudoeste 13 Sudoeste 0 -- -- 77
2019-05-26 06:00:00 10 5 Sudoeste 17 Sudoeste 0 -- -- 75
2019-05-26 05:00:00 10.3 9 Sudoeste 20 Sudoeste 0 -- -- 75
2019-05-26 04:00:00 10.9 11 Sudoeste 23 Oeste 0 -- -- 75
2019-05-26 03:00:00 11.3 13 Oeste 24 Oeste 0 -- -- 75
2019-05-26 02:00:00 11.9 11 Sudoeste 22 Sudoeste 0 -- -- 73
2019-05-26 01:00:00 12.2 6 Sudoeste 22 Oeste 0 -- -- 72
2019-05-26 00:00:00 13.4 12 Oeste 21 Sudoeste 0 -- -- 69
2019-05-25 23:00:00 14.5 14 Oeste 35 Oeste 0 -- -- 65
2019-05-25 22:00:00 15.6 14 Oeste 33 Oeste 0 -- -- 58
2019-05-25 21:00:00 17.7 11 Oeste 43 Noroeste 0 -- -- 51
2019-05-25 20:00:00 19.2 25 Oeste 46 Noroeste 0 -- -- 47
2019-05-25 19:00:00 20 24 Noroeste 41 Oeste 0 -- -- 44
2019-05-25 18:00:00 21.3 22 Oeste 37 Oeste 0 -- -- 43
2019-05-25 17:00:00 20.7 16 Noroeste 43 Oeste 0 -- -- 43
2019-05-25 16:00:00 21.9 19 Oeste 37 Oeste 0 -- -- 43
2019-05-25 15:00:00 21.2 17 Noroeste 39 Oeste 0 -- -- 46
2019-05-25 14:00:00 19.1 19 Oeste 31 Oeste 0 -- -- 50
2019-05-25 13:00:00 18 14 Noroeste 35 Oeste 0 -- -- 54
2019-05-25 12:00:00 17 16 Noroeste 35 Oeste 0 -- -- 59
2019-05-25 11:00:00 16.2 19 Noroeste 39 Oeste 0 -- -- 63
2019-05-25 10:00:00 14 18 Noroeste 34 Noroeste 0 -- -- 69
2019-05-25 09:00:00 12.9 15 Noroeste 30 Oeste 0 -- -- 72
2019-05-25 08:00:00 12.3 12 Noroeste 26 Noroeste 0 -- -- 74
2019-05-25 07:00:00 12 14 Oeste 27 Oeste 0 -- -- 75
2019-05-25 06:00:00 12.1 12 Oeste 28 Oeste 0 -- -- 75
2019-05-25 05:00:00 12.2 14 Oeste 29 Oeste 0 -- -- 75
2019-05-25 04:00:00 12.3 14 Oeste 36 Oeste 0 -- -- 75
2019-05-25 03:00:00 12.5 17 Noroeste 38 Oeste 0 -- -- 76
2019-05-25 02:00:00 12.6 18 Noroeste 31 Oeste 0 -- -- 77
2019-05-25 01:00:00 12.9 14 Noroeste 33 Noroeste 0.1 -- -- 78
2019-05-25 00:00:00 13.2 18 Noroeste 36 Noroeste 0 -- -- 77
2019-05-24 23:00:00 13.8 16 Oeste 33 Noroeste 0 -- -- 75
2019-05-24 22:00:00 14.3 15 Oeste 28 Oeste 0 -- -- 75
2019-05-24 21:00:00 14.6 12 Oeste 23 Oeste 0 -- -- 77
2019-05-24 20:00:00 14.1 16 Oeste 31 Oeste 0 -- -- 86
2019-05-24 19:00:00 14.2 14 Noroeste 34 Noroeste 1.3 -- -- 86
2019-05-24 18:00:00 14.4 15 Noroeste 32 Noroeste 1.2 -- -- 76
2019-05-24 17:00:00 17.1 15 Oeste 34 Oeste 0 -- -- 62
2019-05-24 16:00:00 16.3 13 Oeste 29 Oeste 0 -- -- 68
2019-05-24 15:00:00 14.7 14 Oeste 27 Oeste 0 -- -- 78
2019-05-24 14:00:00 13.6 9 Oeste 22 Sudoeste 0.3 -- -- 87
2019-05-24 13:00:00 12.5 10 Oeste 29 Oeste 1.3 -- -- 94
2019-05-24 12:00:00 12.3 12 Oeste 27 Oeste 1.7 -- -- 97
2019-05-24 11:00:00 12 10 Oeste 26 Oeste 3.5 -- -- 97
2019-05-24 10:00:00 11.9 10 Oeste 19 Oeste 3 -- -- 97
2019-05-24 09:00:00 11.7 10 Oeste 23 Oeste 4.7 -- -- 98
2019-05-24 08:00:00 12.6 11 Oeste 28 Oeste 0 -- -- 91
2019-05-24 07:00:00 13 7 Oeste 18 Noroeste 0 -- -- 93
2019-05-24 06:00:00 13.2 6 Oeste 13 Noroeste 0 -- -- 87
2019-05-24 05:00:00 13.1 5 Noroeste 16 Oeste 0 -- -- 86
2019-05-24 04:00:00 13.7 6 Noroeste 23 Noroeste 0 -- -- 89
2019-05-24 03:00:00 15.5 5 Oeste 16 Noroeste 0.6 -- -- 95
2019-05-24 02:00:00 15.4 12 Noroeste 23 Noroeste 0.7 -- -- 92
2019-05-24 01:00:00 18.8 4 Este 10 Norte 0 -- -- 68
2019-05-24 00:00:00 19.4 4 Sudoeste 20 Noroeste 0 -- -- 68
2019-05-23 23:00:00 20.7 12 Noroeste 36 Noroeste 0 -- -- 56
2019-05-23 22:00:00 22.8 7 Noroeste 14 Noroeste 0 -- -- 40
2019-05-23 21:00:00 24.2 3 Nordeste 11 Nordeste 0 -- -- 39
2019-05-23 20:00:00 26.4 4 Nordeste 13 Este 0 -- -- 33
2019-05-23 19:00:00 27.7 0 Calma 7 Norte 0 -- -- 32
2019-05-23 18:00:00 27.3 4 Norte 13 Este 0 -- -- 31
2019-05-23 17:00:00 28.2 4 Norte 17 Norte 0 -- -- 31
2019-05-23 16:00:00 26.8 7 Norte 22 Nordeste 0 -- -- 32
2019-05-23 15:00:00 27.1 8 Nordeste 21 Este 0 -- -- 33
2019-05-23 14:00:00 27.5 8 Este 16 Este 0 -- -- 34
2019-05-23 13:00:00 25.7 6 Este 17 Este 0 -- -- 37
2019-05-23 12:00:00 24.7 0 Calma 12 Sudoeste 0 -- -- 39
2019-05-23 11:00:00 22 3 Noroeste 12 Oeste 0 -- -- 43
2019-05-23 10:00:00 19.7 5 Sudoeste 10 Sudoeste 0 -- -- 51
2019-05-23 09:00:00 16.8 0 Calma 6 Nordeste 0 -- -- 63
2019-05-23 08:00:00 13.5 0 Calma 7 Oeste 0 -- -- 84
2019-05-23 07:00:00 10.5 0 Calma -- -- 0 -- -- 88
2019-05-23 06:00:00 11.4 0 Calma 4 Noroeste 0 -- -- 86
2019-05-23 05:00:00 12.1 0 Calma 4 Sudoeste 0 -- -- 85
2019-05-23 04:00:00 12.3 0 Calma 4 Sudoeste 0 -- -- 75
2019-05-23 03:00:00 12.6 0 Calma 5 Oeste 0 -- -- 73
2019-05-23 02:00:00 13.7 3 Sudoeste 4 Oeste 0 -- -- 67
2019-05-23 01:00:00 13.9 2 Oeste 8 Sudoeste 0 -- -- 59
2019-05-23 00:00:00 16 0 Calma 10 Sudoeste 0 -- -- 56
2019-05-22 23:00:00 17 3 Sudoeste 10 Sur 0 -- -- 46
2019-05-22 22:00:00 19.1 0 Calma 7 Sur 0 -- -- 39
2019-05-22 21:00:00 22.2 0 Calma 10 Norte 0 -- -- 34
2019-05-22 20:00:00 24.2 5 Noroeste 16 Noroeste 0 -- -- 32
2019-05-22 19:00:00 25.3 7 Noroeste 18 Noroeste 0 -- -- 33
2019-05-22 18:00:00 25 9 Noroeste 22 Noroeste 0 -- -- 34
2019-05-22 17:00:00 25 8 Norte 27 Sudoeste 0 -- -- 34
2019-05-22 16:00:00 24.3 6 Norte 21 Noroeste 0 -- -- 38
2019-05-22 15:00:00 23.8 6 Noroeste 28 Oeste 0 -- -- 39
2019-05-22 14:00:00 23.1 8 Oeste 19 Nordeste 0 -- -- 40
2019-05-22 13:00:00 20.9 5 Sudoeste 27 Oeste 0 -- -- 42
2019-05-22 12:00:00 20 5 Sudoeste 15 Este 0 -- -- 45
2019-05-22 11:00:00 17.9 7 Oeste 16 Oeste 0 -- -- 49
2019-05-22 10:00:00 15.4 3 Oeste 10 Oeste 0 -- -- 58
2019-05-22 09:00:00 13 3 Sudoeste 10 Sudoeste 0 -- -- 64
2019-05-22 08:00:00 10.1 0 Calma 6 Sudoeste 0 -- -- 76
2019-05-22 07:00:00 8.3 0 Calma 4 Sur 0 -- -- 79
2019-05-22 06:00:00 9.1 0 Calma 4 Norte 0 -- -- 74
2019-05-22 05:00:00 10 0 Calma 7 Oeste 0 -- -- 68
2019-05-22 04:00:00 10.6 3 Oeste 7 Oeste 0 -- -- 66
2019-05-22 03:00:00 11 0 Calma 5 Sudoeste 0 -- -- 65
2019-05-22 02:00:00 11.8 0 Calma 8 Sudoeste 0 -- -- 58
2019-05-22 01:00:00 13.7 5 Sudoeste 11 Sudoeste 0 -- -- 56
2019-05-22 00:00:00 13.7 0 Calma 6 Sudeste 0 -- -- 63
2019-05-21 23:00:00 15.3 0 Calma 7 Sudoeste 0 -- -- 58
2019-05-21 22:00:00 16.9 0 Calma 12 Sur 0 -- -- 49
2019-05-21 21:00:00 20.4 6 Noroeste 15 Oeste 0 -- -- 28
2019-05-21 20:00:00 22.5 7 Noroeste 19 Noroeste 0 -- -- 30
2019-05-21 19:00:00 23.6 9 Noroeste 20 Noroeste 0 -- -- 31
2019-05-21 18:00:00 23.3 9 Oeste 27 Noroeste 0 -- -- 31
2019-05-21 17:00:00 23.1 6 Norte 22 Norte 0 -- -- 34
2019-05-21 16:00:00 22.6 11 Noroeste 22 Oeste 0 -- -- 36
2019-05-21 15:00:00 20.9 4 Norte 25 Oeste 0 -- -- 39
2019-05-21 14:00:00 21.2 2 Oeste 20 Noroeste 0 -- -- 42
2019-05-21 13:00:00 19.4 6 Oeste 19 Noroeste 0 -- -- 46
2019-05-21 12:00:00 18.1 5 Noroeste 18 Noroeste 0 -- -- 49
2019-05-21 11:00:00 16.4 5 Oeste 14 Noroeste 0 -- -- 55
2019-05-21 10:00:00 14.9 4 Noroeste 12 Noroeste 0 -- -- 61
2019-05-21 09:00:00 11.6 6 Oeste 10 Oeste 0 -- -- 75
2019-05-21 08:00:00 8.7 0 Calma -- -- 0 -- -- 81
2019-05-21 07:00:00 6.4 0 Calma -- -- 0 -- -- 86
2019-05-21 06:00:00 7.5 0 Calma -- -- 0 -- -- 82
2019-05-21 05:00:00 8.4 0 Calma 6 Oeste 0 -- -- 77
2019-05-21 04:00:00 8.8 5 Sudoeste 9 Sudoeste 0 -- -- 75
2019-05-21 03:00:00 9.5 0 Calma 8 Sudoeste 0 -- -- 71
2019-05-21 02:00:00 9.5 0 Calma 8 Sur 0 -- -- 69
2019-05-21 01:00:00 10 0 Calma 6 Sur 0 -- -- 67
2019-05-21 00:00:00 11.7 2 Sur 5 Sudoeste 0 -- -- 62